Time;durP1;ratioP1;P1;durP2;ratioP2;P2;SDS_P1;SDS_P2;PMS_P1;PMS_P2;Temp;Humidity;BMP_temperature;BMP_pressure;BME280_temperature;BME280_humidity;BME280_pressure;Samples;Min_cycle;Max_cycle;Signal;HPM_P1;HPM_P2
2020/12/06 00:03:58;;;;;;;21.50;12.05;;;231.00;2124.80;;;;;;5115926;28;20511;-77
2020/12/06 00:06:23;;;;;;;17.27;11.50;;;231.00;2124.80;;;;;;5116281;28;20028;-78
2020/12/06 00:08:52;;;;;;;14.68;10.90;;;231.00;2124.80;;;;;;5115565;28;20072;-79
2020/12/06 00:11:18;;;;;;;17.70;11.60;;;231.00;2124.80;;;;;;5115292;28;20465;-79
2020/12/06 00:13:45;;;;;;;17.95;11.95;;;231.00;2124.80;;;;;;5116801;28;20051;-79
2020/12/06 00:16:14;;;;;;;17.23;11.55;;;231.00;2124.80;;;;;;5116508;28;20045;-79
2020/12/06 00:18:42;;;;;;;18.23;10.60;;;231.00;2124.80;;;;;;5116595;28;20036;-79
2020/12/06 00:21:11;;;;;;;21.30;11.18;;;231.00;2124.80;;;;;;5116262;27;20388;-79
2020/12/06 00:23:37;;;;;;;16.48;11.20;;;231.00;2124.80;;;;;;5116745;28;20024;-79
2020/12/06 00:26:03;;;;;;;17.88;11.95;;;231.00;2124.80;;;;;;5116767;28;20421;-79
2020/12/06 00:28:47;;;;;;;20.58;12.85;;;231.00;2150.40;;;;;;5115846;28;20019;-80
2020/12/06 00:31:12;;;;;;;18.97;10.63;;;231.00;2150.40;;;;;;5116818;28;20016;-79
2020/12/06 00:33:38;;;;;;;18.15;11.13;;;231.00;2124.80;;;;;;5116624;28;20341;-78
2020/12/06 00:36:04;;;;;;;16.42;10.38;;;231.00;2124.80;;;;;;5116053;28;20027;-78
2020/12/06 00:38:30;;;;;;;16.92;10.75;;;231.00;2124.80;;;;;;5116052;28;20035;-78
2020/12/06 00:40:55;;;;;;;16.08;11.02;;;231.00;2150.40;;;;;;5116360;28;20023;-79
2020/12/06 00:43:21;;;;;;;15.43;10.30;;;231.00;2150.40;;;;;;5116257;28;20057;-79
2020/12/06 00:45:47;;;;;;;16.40;9.63;;;231.00;2124.80;;;;;;5113577;28;20085;-79
2020/12/06 00:48:13;;;;;;;17.48;10.27;;;231.00;2124.80;;;;;;5114547;28;20111;-77
2020/12/06 00:50:38;;;;;;;15.77;10.27;;;231.00;2124.80;;;;;;5115822;28;20034;-77
2020/12/06 00:53:04;;;;;;;18.10;10.45;;;231.00;2124.80;;;;;;5116010;28;20016;-79
2020/12/06 00:55:30;;;;;;;17.27;10.48;;;231.00;2124.80;;;;;;5115835;28;20479;-80
2020/12/06 00:57:56;;;;;;;14.15;9.63;;;231.00;2124.80;;;;;;5115917;28;20019;-80
2020/12/06 01:00:21;;;;;;;18.25;9.63;;;231.00;2124.80;;;;;;5115881;28;20023;-79
2020/12/06 01:02:47;;;;;;;15.23;9.13;;;231.00;2124.80;;;;;;5115729;28;20051;-79
2020/12/06 01:05:13;;;;;;;13.02;9.07;;;231.00;2124.80;;;;;;5115486;28;20468;-79
2020/12/06 01:07:40;;;;;;;13.82;9.45;;;231.00;2124.80;;;;;;5115540;28;20472;-80
2020/12/06 01:10:08;;;;;;;13.05;8.82;;;231.00;2124.80;;;;;;5116076;28;20050;-79
2020/12/06 01:12:34;;;;;;;13.60;9.88;;;230.90;2124.80;;;;;;5115597;28;20421;-80
2020/12/06 01:15:00;;;;;;;12.05;8.48;;;230.90;2124.80;;;;;;5114209;28;20110;-80
2020/12/06 01:17:25;;;;;;;12.20;9.13;;;230.90;2124.80;;;;;;5114459;28;20108;-79
2020/12/06 01:19:51;;;;;;;13.32;8.93;;;230.90;2124.80;;;;;;5115788;28;20020;-79
2020/12/06 01:22:17;;;;;;;11.10;7.90;;;230.90;2124.80;;;;;;5114468;28;20059;-80
2020/12/06 01:24:43;;;;;;;12.18;8.63;;;230.90;2124.80;;;;;;5115851;28;20389;-81
2020/12/06 01:27:09;;;;;;;13.25;8.20;;;230.90;2124.80;;;;;;5115582;28;20037;-80
2020/12/06 01:29:34;;;;;;;11.95;8.35;;;230.90;2124.80;;;;;;5114158;28;20034;-80
2020/12/06 01:32:00;;;;;;;14.27;8.18;;;230.90;2124.80;;;;;;5114437;28;20114;-80
2020/12/06 01:34:26;;;;;;;11.85;8.32;;;230.90;2124.80;;;;;;5114391;28;20069;-80
2020/12/06 01:36:52;;;;;;;14.20;8.55;;;230.90;2124.80;;;;;;5115091;28;20023;-80
2020/12/06 01:39:21;;;;;;;11.60;7.55;;;230.90;2124.80;;;;;;5115581;28;20020;-79
2020/12/06 01:41:47;;;;;;;12.85;7.57;;;230.90;2124.80;;;;;;5115218;28;20059;-80
2020/12/06 01:44:12;;;;;;;14.20;8.43;;;230.90;2124.80;;;;;;5113948;28;20051;-79
2020/12/06 01:46:39;;;;;;;10.75;7.65;;;230.90;2124.80;;;;;;5114929;28;20529;-80
2020/12/06 01:49:06;;;;;;;11.63;8.05;;;230.90;2124.80;;;;;;5115482;28;20019;-81
2020/12/06 01:51:35;;;;;;;10.63;7.53;;;230.90;2124.80;;;;;;5114070;28;20114;-79
2020/12/06 01:54:04;;;;;;;11.90;7.65;;;230.90;2124.80;;;;;;5114933;28;20016;-80
2020/12/06 01:56:30;;;;;;;9.23;7.18;;;230.80;2124.80;;;;;;5113948;28;20034;-80
2020/12/06 01:58:56;;;;;;;11.70;8.60;;;230.80;2124.80;;;;;;5114661;28;20458;-80
2020/12/06 02:01:22;;;;;;;11.27;7.55;;;230.80;2124.80;;;;;;5114908;28;20077;-79
2020/12/06 02:03:53;;;;;;;11.88;7.57;;;230.80;2124.80;;;;;;5114612;28;20079;-78
2020/12/06 02:06:19;;;;;;;10.77;7.53;;;230.80;2124.80;;;;;;5113779;28;20027;-79
2020/12/06 02:08:47;;;;;;;11.30;6.97;;;230.80;2124.80;;;;;;5114900;28;20023;-79
2020/12/06 02:11:31;;;;;;;11.30;7.43;;;230.80;2124.80;;;;;;5114741;28;20030;-80
2020/12/06 02:13:57;;;;;;;12.15;7.70;;;230.80;2124.80;;;;;;5115004;28;20019;-78
2020/12/06 02:16:22;;;;;;;15.18;8.38;;;230.80;2124.80;;;;;;5113913;28;20038;-79
2020/12/06 02:18:50;;;;;;;12.63;7.72;;;230.90;2099.20;;;;;;5113651;28;20024;-78
2020/12/06 02:21:16;;;;;;;12.52;7.57;;;230.80;2099.20;;;;;;5114644;28;20020;-76
2020/12/06 02:23:42;;;;;;;13.00;8.02;;;230.80;2099.20;;;;;;5116281;28;20088;-79
2020/12/06 02:26:08;;;;;;;12.55;7.93;;;230.80;2099.20;;;;;;5118983;28;20015;-79
2020/12/06 02:28:33;;;;;;;10.60;7.47;;;230.80;2124.80;;;;;;5117626;28;20047;-79
2020/12/06 02:30:59;;;;;;;11.55;7.07;;;230.80;2124.80;;;;;;5118648;28;20482;-79
2020/12/06 02:33:25;;;;;;;13.75;7.95;;;230.80;2099.20;;;;;;5118564;28;20031;-80
2020/12/06 02:35:50;;;;;;;9.35;7.45;;;230.80;2099.20;;;;;;5118336;28;20020;-77
2020/12/06 02:38:16;;;;;;;12.18;7.20;;;230.80;2099.20;;;;;;5118076;28;20499;-80
2020/12/06 02:40:42;;;;;;;12.52;7.60;;;230.80;2124.80;;;;;;5117884;28;20020;-80
2020/12/06 02:43:07;;;;;;;11.85;7.93;;;230.70;2099.20;;;;;;5118383;28;20494;-80
2020/12/06 02:45:33;;;;;;;12.15;8.13;;;230.70;2099.20;;;;;;5118498;28;20023;-78
2020/12/06 02:47:59;;;;;;;12.57;7.40;;;230.70;2099.20;;;;;;5118582;28;20076;-80
2020/12/06 02:50:25;;;;;;;10.95;8.20;;;230.70;2099.20;;;;;;5118534;28;20035;-80
2020/12/06 02:52:51;;;;;;;11.38;7.05;;;230.70;2099.20;;;;;;5118598;27;20410;-79
2020/12/06 02:55:17;;;;;;;12.73;7.30;;;230.70;2124.80;;;;;;5118790;28;20047;-78
2020/12/06 02:57:43;;;;;;;12.75;8.32;;;230.70;2124.80;;;;;;5118483;28;20072;-79
2020/12/06 03:00:08;;;;;;;12.07;7.63;;;230.70;2124.80;;;;;;5117055;28;20031;-78
2020/12/06 03:02:34;;;;;;;11.73;7.47;;;230.70;2124.80;;;;;;5117891;28;20051;-79
2020/12/06 03:05:00;;;;;;;10.73;7.10;;;230.60;2124.80;;;;;;5118307;28;20023;-79
2020/12/06 03:07:25;;;;;;;11.65;7.18;;;230.60;2124.80;;;;;;5118262;27;20027;-79
2020/12/06 03:09:51;;;;;;;12.55;7.25;;;230.60;2124.80;;;;;;5116776;28;20040;-79
2020/12/06 03:12:17;;;;;;;11.00;7.63;;;230.60;2124.80;;;;;;5117099;28;20081;-79
2020/12/06 03:14:42;;;;;;;10.75;7.45;;;230.60;2124.80;;;;;;5118302;28;20023;-79
2020/12/06 03:17:08;;;;;;;11.95;6.78;;;230.60;2124.80;;;;;;5118215;27;20419;-79
2020/12/06 03:19:34;;;;;;;11.00;7.43;;;230.60;2124.80;;;;;;5118275;28;20096;-79
2020/12/06 03:21:59;;;;;;;12.07;7.82;;;230.60;2124.80;;;;;;5118148;28;20042;-79
2020/12/06 03:24:25;;;;;;;11.98;7.07;;;230.60;2124.80;;;;;;5117713;28;20110;-79
2020/12/06 03:26:51;;;;;;;11.85;6.97;;;230.50;2124.80;;;;;;5115958;28;20039;-79
2020/12/06 03:29:17;;;;;;;11.75;7.82;;;230.50;2124.80;;;;;;5117891;28;20024;-79
2020/12/06 03:31:42;;;;;;;9.40;7.30;;;230.50;2124.80;;;;;;5117921;28;20103;-79
2020/12/06 03:34:08;;;;;;;14.05;8.05;;;230.50;2124.80;;;;;;5115532;28;20465;-79
2020/12/06 03:36:34;;;;;;;11.57;7.85;;;230.50;2124.80;;;;;;5117709;28;20031;-79
2020/12/06 03:38:59;;;;;;;11.95;7.72;;;230.50;2124.80;;;;;;5117596;28;20512;-79
2020/12/06 03:41:25;;;;;;;9.60;6.95;;;230.50;2124.80;;;;;;5117614;28;20040;-79
2020/12/06 03:43:51;;;;;;;11.00;7.35;;;230.50;2124.80;;;;;;5117463;28;20045;-80
2020/12/06 03:46:16;;;;;;;10.93;7.03;;;230.40;2124.80;;;;;;5117354;28;20028;-80
2020/12/06 03:48:42;;;;;;;11.80;7.75;;;230.40;2124.80;;;;;;5116149;28;20035;-79
2020/12/06 03:51:08;;;;;;;13.70;8.38;;;230.40;2124.80;;;;;;5117365;28;20062;-80
2020/12/06 03:53:33;;;;;;;13.98;7.80;;;230.50;2124.80;;;;;;5116798;27;20027;-80
2020/12/06 03:55:59;;;;;;;10.88;7.35;;;230.50;2124.80;;;;;;5115831;28;20373;-78
2020/12/06 03:58:25;;;;;;;13.35;8.02;;;230.40;2124.80;;;;;;5116582;28;20031;-80
2020/12/06 04:00:50;;;;;;;12.27;7.20;;;230.40;2124.80;;;;;;5116779;28;20102;-79
2020/12/06 04:03:16;;;;;;;12.38;7.55;;;230.40;2124.80;;;;;;5116580;28;20051;-79
2020/12/06 04:05:42;;;;;;;12.52;8.20;;;230.40;2124.80;;;;;;5117109;28;20023;-79
2020/12/06 04:08:07;;;;;;;12.98;7.60;;;230.40;2124.80;;;;;;5116914;28;20048;-79
2020/12/06 04:10:33;;;;;;;11.02;7.80;;;230.40;2124.80;;;;;;5116921;28;20024;-79
2020/12/06 04:12:59;;;;;;;12.25;7.43;;;230.40;2124.80;;;;;;5113584;28;20027;-77
2020/12/06 04:15:24;;;;;;;14.65;8.15;;;205.70;2124.80;;;;;;5114481;28;20118;-76
2020/12/06 04:17:50;;;;;;;14.18;8.18;;;230.40;2124.80;;;;;;5116554;27;20392;-76
2020/12/06 04:20:16;;;;;;;15.02;8.15;;;205.70;2124.80;;;;;;5116516;28;20055;-77
2020/12/06 04:22:41;;;;;;;12.43;8.02;;;205.70;2124.80;;;;;;5116281;28;20040;-79
2020/12/06 04:25:08;;;;;;;14.25;7.80;;;205.70;2124.80;;;;;;5116739;28;20034;-78
2020/12/06 04:27:34;;;;;;;14.48;8.48;;;205.70;2150.40;;;;;;5116001;28;20427;-76
2020/12/06 04:29:59;;;;;;;14.15;8.60;;;205.70;2124.80;;;;;;5114816;28;20020;-77
2020/12/06 04:32:25;;;;;;;14.35;8.73;;;205.70;2124.80;;;;;;5116363;28;20055;-79
2020/12/06 04:34:51;;;;;;;12.48;8.82;;;205.70;2124.80;;;;;;5104008;28;20020;-78
2020/12/06 04:37:16;;;;;;;12.75;8.85;;;205.60;2124.80;;;;;;5096091;28;20496;-78
2020/12/06 04:39:42;;;;;;;11.20;7.93;;;205.70;2124.80;;;;;;5096082;28;20051;-78
2020/12/06 04:42:08;;;;;;;13.50;8.57;;;205.60;2150.40;;;;;;5095874;28;20123;-78
2020/12/06 04:44:53;;;;;;;15.27;7.65;;;205.60;2124.80;;;;;;5095447;28;20024;-78
2020/12/06 04:47:35;;;;;;;10.98;7.50;;;205.60;2150.40;;;;;;5094712;28;20027;-77
2020/12/06 04:50:04;;;;;;;14.95;7.88;;;205.60;2124.80;;;;;;5095283;28;20488;-77
2020/12/06 04:52:42;;;;;;;11.40;6.90;;;205.60;2124.80;;;;;;5094251;28;20028;-80
2020/12/06 04:55:12;;;;;;;12.65;7.10;;;205.60;2124.80;;;;;;5095636;28;20016;-79
2020/12/06 04:57:38;;;;;;;12.73;7.93;;;205.60;2150.40;;;;;;5095693;28;20023;-80
2020/12/06 05:00:10;;;;;;;14.82;7.70;;;205.60;2124.80;;;;;;5095768;28;20027;-79
2020/12/06 05:02:42;;;;;;;11.63;7.03;;;205.50;2124.80;;;;;;5095361;28;20052;-79
2020/12/06 05:05:08;;;;;;;8.45;6.25;;;205.50;2150.40;;;;;;5095635;28;20416;-79
2020/12/06 05:07:35;;;;;;;11.48;6.90;;;205.50;2124.80;;;;;;5095236;28;20055;-79
2020/12/06 05:10:02;;;;;;;10.25;6.75;;;205.50;2150.40;;;;;;5094991;28;20024;-79
2020/12/06 05:12:27;;;;;;;9.50;6.57;;;205.50;2150.40;;;;;;5095449;28;20078;-79
2020/12/06 05:15:49;;;;;;;11.13;7.13;;;205.50;2124.80;;;;;;5095415;28;20428;-79
2020/12/06 05:18:15;;;;;;;13.10;7.57;;;205.50;2150.40;;;;;;5095232;28;20027;-80
2020/12/06 05:20:41;;;;;;;10.52;6.85;;;205.50;2124.80;;;;;;5094794;28;20028;-79
2020/12/06 05:23:06;;;;;;;9.63;6.38;;;205.40;2124.80;;;;;;5094550;28;20036;-77
2020/12/06 05:25:33;;;;;;;11.27;6.75;;;205.40;2124.80;;;;;;5094891;28;20474;-78
2020/12/06 05:27:59;;;;;;;11.18;7.05;;;205.40;2124.80;;;;;;5094326;28;20024;-80
2020/12/06 05:30:24;;;;;;;13.73;6.47;;;205.40;2124.80;;;;;;5095046;28;20077;-79
2020/12/06 05:32:50;;;;;;;9.90;6.78;;;205.40;2124.80;;;;;;5093214;28;20024;-78
2020/12/06 05:35:18;;;;;;;9.48;6.07;;;205.40;2124.80;;;;;;5094494;28;20450;-78
2020/12/06 05:37:44;;;;;;;9.00;6.07;;;205.40;2150.40;;;;;;5093069;28;20394;-77
2020/12/06 05:40:16;;;;;;;10.73;6.03;;;205.40;2150.40;;;;;;5094878;28;20024;-79
2020/12/06 05:42:43;;;;;;;7.97;5.40;;;205.40;2124.80;;;;;;5094709;28;20043;-79
2020/12/06 05:45:10;;;;;;;7.45;5.03;;;205.40;2124.80;;;;;;5094880;28;20027;-80
2020/12/06 05:47:37;;;;;;;6.45;4.72;;;205.40;2124.80;;;;;;5094816;28;20024;-80
2020/12/06 05:50:04;;;;;;;9.98;5.32;;;205.40;2124.80;;;;;;5094674;28;20027;-79
2020/12/06 05:52:32;;;;;;;12.30;5.50;;;205.50;2124.80;;;;;;5094818;28;20461;-79
2020/12/06 05:54:58;;;;;;;8.00;5.40;;;205.50;2124.80;;;;;;5094490;28;20028;-80
2020/12/06 05:57:29;;;;;;;8.45;5.25;;;205.50;2124.80;;;;;;5094775;28;20024;-80
2020/12/06 05:59:59;;;;;;;7.32;5.07;;;205.40;2124.80;;;;;;5094691;28;20043;-79
2020/12/06 06:02:26;;;;;;;9.77;5.43;;;205.50;2124.80;;;;;;5093293;28;20052;-79
2020/12/06 06:04:57;;;;;;;10.00;5.70;;;205.50;2124.80;;;;;;5094803;28;20035;-80
2020/12/06 06:07:23;;;;;;;9.20;5.28;;;205.50;2124.80;;;;;;5094006;28;20480;-79
2020/12/06 06:09:59;;;;;;;9.38;6.07;;;205.50;2124.80;;;;;;5094942;28;20114;-79
2020/12/06 06:12:24;;;;;;;9.75;5.65;;;205.50;2124.80;;;;;;5093539;28;20028;-79
2020/12/06 06:18:13;;;;;;;11.82;5.10;;;205.40;2124.80;;;;;;5094580;28;20092;-79
2020/12/06 06:20:40;;;;;;;9.02;5.32;;;205.40;2124.80;;;;;;5093795;28;20028;-78
2020/12/06 06:23:07;;;;;;;11.05;6.05;;;205.40;2124.80;;;;;;5094114;28;20028;-80
2020/12/06 06:25:33;;;;;;;8.70;5.70;;;205.40;2124.80;;;;;;5094322;28;20028;-80
2020/12/06 06:27:59;;;;;;;8.40;5.63;;;205.40;2124.80;;;;;;5094377;28;20028;-79
2020/12/06 06:30:25;;;;;;;11.95;5.82;;;205.40;2124.80;;;;;;5092234;28;20139;-79
2020/12/06 06:32:50;;;;;;;8.18;5.10;;;205.40;2124.80;;;;;;5093798;28;20035;-80
2020/12/06 06:35:17;;;;;;;9.00;5.57;;;205.40;2124.80;;;;;;5094644;28;20557;-80
2020/12/06 06:37:46;;;;;;;11.52;5.65;;;205.50;2124.80;;;;;;5094410;28;20465;-80
2020/12/06 06:40:11;;;;;;;9.95;6.40;;;205.40;2124.80;;;;;;5094404;28;20027;-81
2020/12/06 06:42:38;;;;;;;8.95;5.65;;;205.50;2124.80;;;;;;5092072;28;20129;-81
2020/12/06 06:45:08;;;;;;;12.82;5.97;;;205.50;2124.80;;;;;;5093038;28;20485;-80
2020/12/06 06:47:41;;;;;;;7.82;5.40;;;205.50;2124.80;;;;;;5105043;28;20465;-77
2020/12/06 06:50:09;;;;;;;17.20;8.05;;;205.50;2124.80;;;;;;5102678;28;20035;-76
2020/12/06 06:52:36;;;;;;;17.52;8.57;;;205.50;2124.80;;;;;;5093900;28;20465;-77
2020/12/06 06:55:05;;;;;;;11.85;6.28;;;205.50;2124.80;;;;;;5093801;28;20044;-78
2020/12/06 06:57:32;;;;;;;11.98;6.28;;;205.60;2099.20;;;;;;5093818;28;20030;-80
2020/12/06 06:59:59;;;;;;;13.30;6.72;;;205.60;2099.20;;;;;;5092665;28;20024;-80
2020/12/06 07:02:45;;;;;;;13.90;7.35;;;205.70;2099.20;;;;;;5093789;28;20067;-77
2020/12/06 07:05:13;;;;;;;9.88;6.43;;;205.70;2099.20;;;;;;5101077;28;20075;-78
2020/12/06 07:07:43;;;;;;;10.95;6.22;;;205.70;2099.20;;;;;;5101430;28;20052;-78
2020/12/06 07:10:12;;;;;;;8.38;6.07;;;230.40;2099.20;;;;;;5104832;28;20035;-78
2020/12/06 07:12:38;;;;;;;9.75;6.25;;;230.40;2099.20;;;;;;5108567;28;20431;-77
2020/12/06 07:15:11;;;;;;;8.77;5.70;;;230.40;2099.20;;;;;;5105023;28;20374;-77
2020/12/06 07:17:38;;;;;;;11.27;6.90;;;230.40;2073.60;;;;;;5102403;28;20019;-78
2020/12/06 07:20:06;;;;;;;23.08;11.90;;;230.40;2073.60;;;;;;5110175;28;20047;-77
2020/12/06 07:22:33;;;;;;;13.98;7.45;;;230.50;2073.60;;;;;;5105886;28;20060;-79
2020/12/06 07:24:59;;;;;;;15.30;8.75;;;230.50;2073.60;;;;;;5108356;27;20104;-76
2020/12/06 07:27:25;;;;;;;13.73;7.72;;;230.50;2073.60;;;;;;5110848;28;20024;-78
2020/12/06 07:29:53;;;;;;;15.93;7.85;;;230.50;2073.60;;;;;;5099215;28;20051;-80
2020/12/06 07:32:20;;;;;;;10.48;6.53;;;230.60;2048.00;;;;;;5113460;28;20185;-81
2020/12/06 07:34:47;;;;;;;8.77;6.38;;;230.60;2048.00;;;;;;5106062;28;20388;-79
2020/12/06 07:37:14;;;;;;;10.45;6.30;;;230.70;2048.00;;;;;;5110580;28;20111;-80
2020/12/06 07:39:47;;;;;;;7.43;5.32;;;230.70;2048.00;;;;;;5109878;28;20028;-80
2020/12/06 07:42:25;;;;;;;11.83;7.13;;;230.80;2048.00;;;;;;5089291;28;20039;-79
2020/12/06 07:45:30;;;;;;;10.70;5.70;;;230.80;2048.00;;;;;;5104745;28;20351;-77
2020/12/06 07:47:55;;;;;;;9.85;6.43;;;230.80;2022.40;;;;;;5101510;28;20103;-79
2020/12/06 07:50:21;;;;;;;13.10;6.47;;;230.90;2022.40;;;;;;5101528;28;20103;-79
2020/12/06 07:52:47;;;;;;;10.50;5.65;;;231.00;2022.40;;;;;;5111173;28;20020;-79
2020/12/06 07:55:13;;;;;;;10.45;6.60;;;231.00;1996.80;;;;;;5102921;28;20024;-77
2020/12/06 07:57:52;;;;;;;11.13;6.07;;;231.10;1996.80;;;;;;5116675;28;20020;-79
2020/12/06 08:00:42;;;;;;;15.15;5.25;;;231.20;1996.80;;;;;;5117287;28;20018;-79
2020/12/06 08:03:11;;;;;;;9.88;6.25;;;231.20;1996.80;;;;;;5096062;28;20488;-78
2020/12/06 08:05:40;;;;;;;10.95;6.63;;;231.20;1971.20;;;;;;5096096;28;20481;-80
2020/12/06 08:08:14;;;;;;;18.42;11.05;;;231.30;1971.20;;;;;;5096630;28;20035;-78
2020/12/06 08:10:41;;;;;;;19.98;12.43;;;231.30;1971.20;;;;;;5096187;28;20477;-79
2020/12/06 08:13:41;;;;;;;16.85;7.47;;;231.30;1971.20;;;;;;5094976;28;20044;-79
2020/12/06 08:16:11;;;;;;;11.38;6.45;;;256.00;1971.20;;;;;;5096784;28;20032;-76
2020/12/06 08:18:37;;;;;;;15.52;6.65;;;256.00;1945.60;;;;;;5094856;28;20528;-77
2020/12/06 08:21:02;;;;;;;9.88;6.47;;;256.10;1945.60;;;;;;5106745;28;20112;-79
2020/12/06 08:23:36;;;;;;;13.98;6.22;;;256.20;1945.60;;;;;;5106381;28;20028;-78
2020/12/06 08:26:03;;;;;;;14.52;7.60;;;256.30;1945.60;;;;;;5103497;28;20053;-76
2020/12/06 08:28:30;;;;;;;15.85;6.47;;;256.30;1920.00;;;;;;5103510;28;20027;-77
2020/12/06 08:30:56;;;;;;;13.45;8.88;;;256.30;1920.00;;;;;;5104876;28;20530;-78
2020/12/06 08:33:26;;;;;;;12.75;8.23;;;256.40;1920.00;;;;;;5104604;28;20076;-78
2020/12/06 08:35:56;;;;;;;11.82;7.13;;;256.40;1920.00;;;;;;5106676;28;20024;-77
2020/12/06 08:38:23;;;;;;;16.48;8.18;;;256.50;1920.00;;;;;;5097689;28;20035;-79
2020/12/06 08:41:01;;;;;;;14.48;6.50;;;256.50;1894.40;;;;;;5109733;28;20023;-80
2020/12/06 08:43:50;;;;;;;11.00;5.95;;;256.50;1894.40;;;;;;5104661;28;20452;-77
2020/12/06 08:46:18;;;;;;;10.27;6.10;;;256.60;1894.40;;;;;;5106203;28;20016;-78
2020/12/06 08:48:44;;;;;;;10.27;7.10;;;256.60;1894.40;;;;;;5103721;28;20040;-79
2020/12/06 08:51:48;;;;;;;9.80;5.60;;;256.70;1894.40;;;;;;5100730;28;20024;-79
2020/12/06 08:54:14;;;;;;;10.48;6.82;;;256.80;1868.80;;;;;;5022647;28;20033;-79
2020/12/06 08:56:42;;;;;;;12.10;6.63;;;256.80;1868.80;;;;;;5039649;28;20041;-77
2020/12/06 08:59:15;;;;;;;8.65;5.88;;;256.80;1868.80;;;;;;5033862;28;20175;-79
2020/12/06 09:01:50;;;;;;;14.83;6.33;;;256.90;1868.80;;;;;;5032548;28;20057;-77
2020/12/06 09:04:17;;;;;;;10.73;6.07;;;256.90;1868.80;;;;;;5024373;28;20048;-77
2020/12/06 09:06:43;;;;;;;10.27;5.38;;;281.60;1894.40;;;;;;5013424;28;20476;-80
2020/12/06 09:09:12;;;;;;;10.27;5.97;;;281.60;1868.80;;;;;;5013189;28;20067;-79
2020/12/06 09:11:38;;;;;;;9.32;5.43;;;281.70;1868.80;;;;;;5022039;28;20060;-78
2020/12/06 09:14:04;;;;;;;11.05;6.10;;;281.70;1868.80;;;;;;5032978;28;20073;-79
2020/12/06 09:16:31;;;;;;;13.55;6.97;;;281.80;1868.80;;;;;;5024749;28;20107;-76
2020/12/06 09:18:57;;;;;;;13.75;6.15;;;281.90;1868.80;;;;;;5022225;28;20064;-78
2020/12/06 09:21:23;;;;;;;8.20;5.55;;;282.00;1843.20;;;;;;5025198;28;20032;-80
2020/12/06 09:23:48;;;;;;;10.43;6.90;;;282.00;1843.20;;;;;;5021310;28;20478;-78
2020/12/06 09:26:14;;;;;;;11.65;7.13;;;282.10;1817.60;;;;;;5026426;28;20052;-78
2020/12/06 09:28:40;;;;;;;11.45;6.15;;;282.20;1817.60;;;;;;5028282;28;20029;-78
2020/12/06 09:31:06;;;;;;;12.45;6.40;;;282.20;1817.60;;;;;;5113389;28;20500;-81
2020/12/06 09:33:32;;;;;;;8.88;5.88;;;282.30;1792.00;;;;;;5113999;28;20035;-78
2020/12/06 09:35:58;;;;;;;19.17;7.70;;;282.40;1792.00;;;;;;5107065;28;20055;-80
2020/12/06 09:38:24;;;;;;;17.15;9.60;;;282.40;1817.60;;;;;;5114696;28;20032;-79
2020/12/06 09:40:50;;;;;;;10.27;5.60;;;282.50;1817.60;;;;;;5103355;28;20025;-82
2020/12/06 09:43:16;;;;;;;11.63;6.72;;;282.50;1766.40;;;;;;5113407;28;20031;-81
2020/12/06 09:45:42;;;;;;;10.93;7.40;;;282.50;1766.40;;;;;;5114016;28;20046;-80
2020/12/06 09:48:09;;;;;;;11.82;6.93;;;282.50;1766.40;;;;;;5114925;28;20023;-79
2020/12/06 09:50:35;;;;;;;13.02;6.45;;;282.50;1792.00;;;;;;5114323;28;20141;-80
2020/12/06 09:53:01;;;;;;;9.73;6.00;;;282.50;1766.40;;;;;;5114942;28;20028;-80
2020/12/06 09:55:27;;;;;;;11.27;6.50;;;282.50;1766.40;;;;;;5114977;28;20023;-78
2020/12/06 09:57:53;;;;;;;16.38;6.70;;;282.50;1766.40;;;;;;5112819;28;20568;-81
2020/12/06 10:00:19;;;;;;;11.63;7.07;;;307.20;1766.40;;;;;;5115050;28;20020;-78
2020/12/06 10:02:45;;;;;;;17.27;6.50;;;307.40;1766.40;;;;;;5113606;28;20066;-78
2020/12/06 10:05:11;;;;;;;11.52;6.28;;;307.60;1740.80;;;;;;5114326;28;20480;-81
2020/12/06 10:07:37;;;;;;;14.52;9.32;;;307.70;1715.20;;;;;;5113647;28;20027;-79
2020/12/06 10:10:07;;;;;;;15.65;7.30;;;307.90;1715.20;;;;;;5112103;28;20092;-79
2020/12/06 10:12:33;;;;;;;12.25;6.07;;;308.10;1715.20;;;;;;5108780;28;20077;-80
2020/12/06 10:14:59;;;;;;;11.43;6.40;;;333.00;1689.60;;;;;;5113234;28;20031;-78
2020/12/06 10:17:25;;;;;;;21.50;6.78;;;333.10;1664.00;;;;;;5113802;28;20024;-79
2020/12/06 10:19:50;;;;;;;14.52;6.97;;;333.20;1638.40;;;;;;5114482;28;20457;-80
2020/12/06 10:22:16;;;;;;;11.45;6.30;;;333.30;1638.40;;;;;;5113153;28;20040;-80
2020/12/06 10:24:42;;;;;;;14.95;6.80;;;333.30;1638.40;;;;;;5111243;28;20035;-80
2020/12/06 10:27:08;;;;;;;16.50;6.47;;;333.40;1638.40;;;;;;5114066;28;20030;-79
2020/12/06 10:29:34;;;;;;;10.82;6.10;;;333.50;1612.80;;;;;;5112625;28;20027;-77
2020/12/06 10:32:00;;;;;;;9.52;5.57;;;333.60;1638.40;;;;;;5114200;28;20118;-78
2020/12/06 10:34:27;;;;;;;13.18;5.53;;;333.60;1587.20;;;;;;5112779;28;20023;-77
2020/12/06 10:36:55;;;;;;;13.23;5.75;;;333.60;1587.20;;;;;;5113514;28;20032;-79
2020/12/06 10:39:22;;;;;;;8.52;5.45;;;333.60;1587.20;;;;;;5113717;28;20031;-77
2020/12/06 10:41:51;;;;;;;12.18;6.93;;;333.70;1587.20;;;;;;5113307;28;20067;-77
2020/12/06 10:44:18;;;;;;;13.35;6.93;;;333.70;1587.20;;;;;;5114710;28;20024;-78
2020/12/06 10:46:44;;;;;;;13.50;6.72;;;358.40;1587.20;;;;;;5118020;28;20030;-79
2020/12/06 10:49:12;;;;;;;13.57;6.00;;;358.60;1561.60;;;;;;5118315;28;20026;-79
2020/12/06 10:51:39;;;;;;;18.48;7.55;;;358.70;1536.00;;;;;;5117887;28;20055;-80
2020/12/06 10:54:06;;;;;;;15.55;7.95;;;358.80;1536.00;;;;;;5118466;28;20055;-80
2020/12/06 10:56:32;;;;;;;13.90;6.95;;;358.90;1536.00;;;;;;5118399;28;20027;-81
2020/12/06 10:59:35;;;;;;;24.08;8.23;;;359.00;1510.40;;;;;;5118261;28;20380;-81
2020/12/06 11:02:01;;;;;;;14.32;6.72;;;359.10;1510.40;;;;;;5121408;28;20488;-81
2020/12/06 11:04:27;;;;;;;12.68;7.30;;;359.00;1510.40;;;;;;5110553;28;20030;-80
2020/12/06 11:06:57;;;;;;;15.65;6.68;;;359.10;1510.40;;;;;;5114553;28;20477;-79
2020/12/06 11:09:23;;;;;;;10.02;6.63;;;359.10;1510.40;;;;;;5118139;28;20050;-81
2020/12/06 11:11:50;;;;;;;23.10;7.25;;;359.10;1510.40;;;;;;5117359;28;20527;-81
2020/12/06 11:14:17;;;;;;;14.45;7.07;;;359.10;1484.80;;;;;;5116984;28;20115;-79
2020/12/06 11:16:43;;;;;;;13.73;7.30;;;359.10;1484.80;;;;;;5117458;28;20046;-81
2020/12/06 11:19:08;;;;;;;14.23;6.35;;;359.30;1484.80;;;;;;5117028;28;20465;-80
2020/12/06 11:21:34;;;;;;;10.50;5.80;;;359.30;1484.80;;;;;;5116512;28;20039;-78
2020/12/06 11:24:00;;;;;;;11.52;5.88;;;359.20;1484.80;;;;;;5116554;28;20027;-80
2020/12/06 11:26:26;;;;;;;12.45;6.72;;;359.20;1484.80;;;;;;5116235;28;20419;-79
2020/12/06 11:28:59;;;;;;;16.63;7.47;;;359.20;1459.20;;;;;;5115172;28;20039;-81
2020/12/06 11:31:25;;;;;;;15.63;8.93;;;384.10;1459.20;;;;;;5116924;28;20049;-81
2020/12/06 11:33:51;;;;;;;16.50;10.15;;;384.10;1459.20;;;;;;5114744;28;20039;-81
2020/12/06 11:36:17;;;;;;;12.20;8.77;;;384.10;1433.60;;;;;;5115379;28;20077;-79
2020/12/06 11:38:45;;;;;;;18.10;7.13;;;359.20;1459.20;;;;;;5112065;28;20118;-80
2020/12/06 11:41:11;;;;;;;11.93;6.05;;;358.90;1459.20;;;;;;5116328;27;20024;-83
2020/12/06 11:43:39;;;;;;;17.25;6.90;;;358.80;1484.80;;;;;;5117193;27;20046;-81
2020/12/06 11:46:05;;;;;;;12.23;7.20;;;358.80;1484.80;;;;;;5116751;28;20023;-80
2020/12/06 11:48:31;;;;;;;15.38;6.45;;;358.70;1484.80;;;;;;5111347;28;20511;-82
2020/12/06 11:50:56;;;;;;;15.93;7.45;;;358.80;1484.80;;;;;;5115301;28;20380;-81
2020/12/06 11:53:22;;;;;;;10.73;5.93;;;358.90;1484.80;;;;;;5116521;28;20487;-83
2020/12/06 11:55:48;;;;;;;17.38;6.45;;;359.10;1484.80;;;;;;5117225;28;20023;-84
2020/12/06 11:58:13;;;;;;;11.68;6.65;;;359.10;1459.20;;;;;;5115942;28;20028;-83
2020/12/06 12:01:20;;;;;;;35.20;6.63;;;359.10;1459.20;;;;;;5116350;28;20019;-82
2020/12/06 12:03:45;;;;;;;9.68;5.78;;;359.10;1459.20;;;;;;5110484;28;20051;-80
2020/12/06 12:06:11;;;;;;;11.85;6.93;;;359.20;1459.20;;;;;;5116604;28;20035;-81
2020/12/06 12:08:37;;;;;;;19.95;12.93;;;359.30;1459.20;;;;;;5116172;28;20404;-80
2020/12/06 12:11:09;;;;;;;11.00;5.85;;;359.30;1459.20;;;;;;5116779;28;20059;-78
2020/12/06 12:13:38;;;;;;;11.13;6.90;;;359.30;1433.60;;;;;;5116859;28;20023;-79
2020/12/06 12:16:41;;;;;;;12.38;6.40;;;384.00;1459.20;;;;;;5116494;28;20015;-86
2020/12/06 12:19:07;;;;;;;9.88;6.22;;;359.30;1459.20;;;;;;5111448;28;20422;-78